Time;durP1;ratioP1;P1;durP2;ratioP2;P2;SDS_P1;SDS_P2;PMS_P1;PMS_P2;Temp;Humidity;BMP_temperature;BMP_pressure;BME280_temperature;BME280_humidity;BME280_pressure;Samples;Min_cycle;Max_cycle;Signal;HPM_P1;HPM_P2
2022/09/21 06:12:56;;;;;;;;;7.00;5.00;;;;;19.40;55.05;102207.41;5098297;27;45908;-73
2022/09/21 06:15:21;;;;;;;;;4.50;4.00;;;;;19.57;55.13;102208.03;5103468;27;45605;-71
2022/09/21 06:17:46;;;;;;;;;2.75;1.50;;;;;19.78;54.75;102205.69;5089285;27;49091;-70
2022/09/21 06:20:12;;;;;;;;;5.00;4.00;;;;;20.06;54.66;102195.69;5086507;27;49839;-70
2022/09/21 06:22:37;;;;;;;;;5.00;3.00;;;;;20.39;54.17;102201.44;5088498;27;45948;-71
2022/09/21 06:25:03;;;;;;;;;3.75;3.75;;;;;20.72;53.73;102202.63;5081557;27;46385;-72
2022/09/21 06:27:28;;;;;;;;;3.00;3.00;;;;;21.06;53.18;102202.81;5090690;27;45376;-72
2022/09/21 06:29:54;;;;;;;;;3.67;3.67;;;;;21.38;52.31;102205.88;5092187;27;45701;-71
2022/09/21 06:32:19;;;;;;;;;4.00;4.00;;;;;21.67;52.25;102203.56;5089788;27;47108;-72
2022/09/21 06:34:44;;;;;;;;;3.00;3.00;;;;;21.94;51.52;102212.34;5091123;27;45473;-72
2022/09/21 06:37:09;;;;;;;;;3.00;3.00;;;;;22.21;50.96;102219.25;5084083;27;45653;-72
2022/09/21 06:39:35;;;;;;;;;4.33;3.67;;;;;22.43;50.67;102215.66;5090583;27;45406;-74
2022/09/21 06:42:00;;;;;;;;;5.33;4.00;;;;;22.65;50.04;102216.66;5095306;27;48556;-73
2022/09/21 06:44:26;;;;;;;;;2.67;2.00;;;;;22.84;49.81;102218.66;5092172;27;45833;-74
2022/09/21 06:46:51;;;;;;;;;4.00;4.00;;;;;23.03;49.88;102223.41;5090434;27;45858;-73
2022/09/21 06:49:16;;;;;;;;;8.00;3.00;;;;;23.19;49.53;102223.94;5091000;27;45432;-74
2022/09/21 06:51:42;;;;;;;;;3.00;3.00;;;;;23.35;48.94;102223.53;5091064;27;46103;-73
2022/09/21 06:54:08;;;;;;;;;3.00;3.00;;;;;23.49;48.63;102225.03;5088918;27;46855;-74
2022/09/21 06:56:34;;;;;;;;;3.00;3.00;;;;;23.61;48.17;102220.41;5114982;27;45983;-74
2022/09/21 06:58:59;;;;;;;;;5.00;3.00;;;;;23.74;47.96;102223.78;5082023;27;45520;-71
2022/09/21 07:01:25;;;;;;;;;3.67;3.67;;;;;23.86;47.76;102223.69;5088187;27;45932;-72
2022/09/21 07:03:51;;;;;;;;;4.33;4.00;;;;;23.97;47.46;102225.44;5084175;27;45462;-72
2022/09/21 07:06:17;;;;;;;;;6.33;4.00;;;;;24.08;47.24;102223.50;5089224;27;45500;-70
2022/09/21 07:08:43;;;;;;;;;3.33;3.33;;;;;24.16;47.14;102214.72;5087955;27;46536;-73
2022/09/21 07:11:09;;;;;;;;;3.33;3.00;;;;;24.26;46.75;102217.47;5089793;27;46783;-72
2022/09/21 07:13:35;;;;;;;;;4.67;4.33;;;;;24.33;46.76;102218.63;5083523;27;45362;-72
2022/09/21 07:16:06;;;;;;;;;5.00;2.33;;;;;24.39;46.68;102221.81;5078097;27;45575;-72
2022/09/21 07:18:33;;;;;;;;;2.33;2.33;;;;;24.47;46.55;102219.22;5083914;27;45474;-71
2022/09/21 07:21:02;;;;;;;;;2.67;2.00;;;;;24.53;46.39;102225.97;5083425;27;46972;-72
2022/09/21 07:23:28;;;;;;;;;3.00;3.00;;;;;24.57;46.35;102222.81;5073423;27;45417;-71
2022/09/21 07:25:53;;;;;;;;;2.00;2.00;;;;;24.63;46.43;102224.13;5072174;27;45420;-74
2022/09/21 07:28:19;;;;;;;;;3.00;3.00;;;;;24.71;45.83;102213.44;5070651;27;52568;-75
2022/09/21 07:30:44;;;;;;;;;2.67;2.67;;;;;24.77;45.94;102220.13;5072844;27;45545;-71
2022/09/21 07:33:10;;;;;;;;;2.33;2.33;;;;;24.79;45.93;102206.41;5076000;27;45617;-71
2022/09/21 07:35:35;;;;;;;;;2.67;2.67;;;;;24.83;45.96;102214.19;5063227;27;45423;-72
2022/09/21 07:38:06;;;;;;;;;3.00;3.00;;;;;24.86;45.78;102211.16;5076550;27;45477;-72
2022/09/21 07:40:32;;;;;;;;;3.00;3.00;;;;;24.90;45.74;102208.19;5076058;27;46249;-72
2022/09/21 07:43:01;;;;;;;;;1.67;1.67;;;;;24.93;45.69;102207.91;5065455;27;45398;-75
2022/09/21 07:45:26;;;;;;;;;3.67;3.67;;;;;24.99;45.37;102212.75;5103583;27;46337;-71
2022/09/21 07:47:53;;;;;;;;;6.67;5.67;;;;;25.07;44.39;102214.75;5073953;27;45431;-71
2022/09/21 07:50:19;;;;;;;;;5.33;4.33;;;;;25.11;44.26;102211.63;5071908;27;46714;-70
2022/09/21 07:52:45;;;;;;;;;6.00;4.00;;;;;25.20;43.90;102201.75;5075289;27;45450;-71
2022/09/21 07:55:10;;;;;;;;;7.00;5.00;;;;;25.25;43.71;102196.72;5075963;27;45343;-71
2022/09/21 08:00:19;;;;;;;;;5.00;5.00;;;;;25.36;42.85;102194.84;5070227;28;45868;-71
2022/09/21 08:02:44;;;;;;;;;5.00;4.00;;;;;25.38;43.08;102195.56;5073219;27;45629;-71
2022/09/21 08:05:10;;;;;;;;;3.00;3.00;;;;;25.39;43.01;102192.69;5075509;27;57726;-71
2022/09/21 08:07:35;;;;;;;;;4.00;4.00;;;;;25.42;42.93;102198.84;5076363;27;45315;-73
2022/09/21 08:10:00;;;;;;;;;6.00;3.00;;;;;25.43;42.45;102204.13;5067560;27;46534;-75
2022/09/21 08:12:26;;;;;;;;;6.00;4.33;;;;;25.46;42.46;102203.00;5073351;27;54559;-73
2022/09/21 08:14:51;;;;;;;;;4.67;4.67;;;;;25.44;42.27;102197.69;5073643;27;56392;-73
2022/09/21 08:17:16;;;;;;;;;2.00;2.00;;;;;25.44;41.99;102200.41;5076635;27;45541;-74
2022/09/21 08:19:42;;;;;;;;;4.00;4.00;;;;;25.43;42.18;102204.13;5068810;28;52553;-74
2022/09/21 08:22:07;;;;;;;;;2.67;2.67;;;;;25.45;42.21;102202.13;5076283;27;45407;-74
2022/09/21 08:24:32;;;;;;;;;3.33;3.33;;;;;25.47;42.00;102201.97;5068734;27;52285;-74
2022/09/21 08:26:58;;;;;;;;;5.33;4.00;;;;;25.47;42.29;102202.81;5075429;27;45442;-73
2022/09/21 08:29:24;;;;;;;;;3.33;3.33;;;;;25.50;42.10;102205.25;5076229;28;46495;-74
2022/09/21 08:31:51;;;;;;;;;4.00;2.00;;;;;25.51;41.73;102201.53;5075099;27;45411;-73
2022/09/21 08:34:18;;;;;;;;;3.67;3.67;;;;;25.54;41.90;102200.38;5073238;27;45493;-74
2022/09/21 08:36:44;;;;;;;;;5.67;3.00;;;;;25.56;41.68;102194.81;5074323;27;45313;-75
2022/09/21 08:39:09;;;;;;;;;2.00;2.00;;;;;25.59;41.50;102203.53;5075317;27;45371;-71
2022/09/21 08:41:46;;;;;;;;;4.67;4.67;;;;;25.59;41.40;102194.53;5075710;27;45297;-70
2022/09/21 08:44:23;;;;;;;;;4.00;4.00;;;;;25.59;41.20;102194.53;5075403;27;45475;-70
2022/09/21 08:46:59;;;;;;;;;4.33;4.00;;;;;25.59;41.48;102192.66;5075913;27;45584;-70
2022/09/21 08:49:27;;;;;;;;;6.33;4.00;;;;;25.62;41.39;102196.94;5071141;27;45639;-70
2022/09/21 08:52:00;;;;;;;;;4.00;4.00;;;;;25.62;41.34;102186.06;5073408;27;45368;-70
2022/09/21 08:54:33;;;;;;;;;4.67;3.00;;;;;25.65;41.03;102191.22;5075552;27;45477;-72
2022/09/21 08:56:59;;;;;;;;;5.00;4.00;;;;;25.69;41.30;102200.81;5073121;27;45739;-72
2022/09/21 08:59:24;;;;;;;;;3.67;3.67;;;;;25.69;41.21;102187.22;5063562;27;45494;-72
2022/09/21 09:02:24;;;;;;;;;5.00;3.00;;;;;25.72;41.08;102197.78;5072627;28;45485;-72
2022/09/21 09:05:00;;;;;;;;;4.00;4.00;;;;;25.74;40.98;102203.94;5065950;28;45466;-70
2022/09/21 09:07:43;;;;;;;;;3.00;3.00;;;;;25.74;41.04;102190.34;5068463;27;45485;-72
2022/09/21 09:10:39;;;;;;;;;4.00;4.00;;;;;25.74;41.06;102197.63;5072573;27;45463;-70
2022/09/21 09:13:45;;;;;;;;;3.67;3.00;;;;;25.73;40.71;102196.78;5072363;27;45365;-69
2022/09/21 09:16:29;;;;;;;;;4.00;4.00;;;;;25.73;41.05;102198.63;5070919;28;45470;-70
2022/09/21 09:19:04;;;;;;;;;5.00;4.00;;;;;25.73;40.64;102198.63;5074105;28;45476;-69
2022/09/21 09:21:42;;;;;;;;;3.00;3.00;;;;;25.72;40.60;102195.09;5074188;27;46474;-70
2022/09/21 09:24:31;;;;;;;;;3.33;3.33;;;;;25.73;40.73;102185.91;5067593;27;45426;-70
2022/09/21 09:27:16;;;;;;;;;8.33;5.33;;;;;25.72;40.38;102188.78;5075803;27;45816;-71
2022/09/21 09:30:01;;;;;;;;;9.33;7.33;;;;;25.69;40.51;102180.91;5069986;27;45599;-71
2022/09/21 09:32:54;;;;;;;;;4.33;3.00;;;;;25.72;40.79;102188.78;5072476;27;48159;-70
2022/09/21 09:35:25;;;;;;;;;4.00;4.00;;;;;25.71;40.61;102187.06;5071262;27;45491;-73
2022/09/21 09:37:56;;;;;;;;;4.00;4.00;;;;;25.67;40.75;102191.94;5072237;27;45500;-73
2022/09/21 09:40:47;;;;;;;;;2.67;2.67;;;;;25.67;40.89;102191.94;5067760;27;45552;-74
2022/09/21 09:43:28;;;;;;;;;4.00;3.00;;;;;25.65;40.65;102183.94;5073604;27;45897;-74
2022/09/21 09:46:19;;;;;;;;;6.67;2.00;;;;;25.70;41.13;102194.34;5066562;27;45788;-73
2022/09/21 09:49:04;;;;;;;;;6.67;4.33;;;;;25.73;41.54;102187.75;5073972;27;45421;-74
2022/09/21 09:51:37;;;;;;;;;5.67;2.67;;;;;25.79;40.90;102195.34;5070850;27;45468;-74
2022/09/21 09:54:02;;;;;;;;;3.00;3.00;;;;;25.81;41.22;102185.16;5070712;27;45717;-74
2022/09/21 09:56:30;;;;;;;;;2.67;2.67;;;;;25.87;41.33;102184.56;5071437;27;45512;-73
2022/09/21 09:58:59;;;;;;;;;2.67;2.67;;;;;25.91;41.25;102185.09;5074450;27;45498;-72
2022/09/21 10:01:48;;;;;;;;;1.33;1.33;;;;;25.96;41.24;102184.66;5073060;27;45314;-74
2022/09/21 10:04:16;;;;;;;;;3.33;3.00;;;;;25.98;41.40;102188.94;5070390;27;46241;-72
2022/09/21 10:06:42;;;;;;;;;3.67;2.33;;;;;25.97;40.95;102179.09;5077134;27;45593;-73
2022/09/21 10:09:22;;;;;;;;;4.67;3.00;;;;;26.03;40.94;102183.91;5071443;27;45803;-74
2022/09/21 10:11:48;;;;;;;;;4.00;4.00;;;;;26.07;41.38;102183.63;5065577;27;45845;-73
2022/09/21 10:14:19;;;;;;;;;4.00;3.00;;;;;26.09;41.33;102184.31;5070166;28;47110;-71
2022/09/21 10:16:50;;;;;;;;;4.33;3.00;;;;;26.12;41.60;102186.75;5072743;27;45383;-72
2022/09/21 10:19:26;;;;;;;;;3.00;2.00;;;;;26.16;40.95;102171.84;5067151;27;45408;-72
2022/09/21 10:21:56;;;;;;;;;2.00;2.00;;;;;26.19;41.18;102176.94;5071359;27;45700;-71
2022/09/21 10:24:32;;;;;;;;;4.33;3.00;;;;;26.24;41.21;102169.19;5071258;27;46163;-71
2022/09/21 10:27:10;;;;;;;;;3.00;3.00;;;;;26.26;41.12;102166.34;5064446;27;45526;-72
2022/09/21 10:29:38;;;;;;;;;3.67;3.33;;;;;26.30;41.52;102163.19;5068049;27;45746;-72
2022/09/21 10:32:18;;;;;;;;;3.00;3.00;;;;;26.35;41.43;102159.16;5071567;27;45534;-72
2022/09/21 10:35:09;;;;;;;;;3.67;3.67;;;;;26.38;41.53;102162.41;5072109;27;46202;-72
2022/09/21 10:37:42;;;;;;;;;3.00;3.00;;;;;26.40;41.39;102162.25;5067244;27;45469;-73
2022/09/21 10:40:16;;;;;;;;;2.67;2.67;;;;;26.43;41.03;102161.94;5065529;27;45787;-74
2022/09/21 10:42:42;;;;;;;;;4.00;4.00;;;;;26.46;40.39;102163.50;5064784;27;45522;-74
2022/09/21 10:45:23;;;;;;;;;3.00;3.00;;;;;26.49;39.67;102160.47;5067129;27;46214;-74
2022/09/21 10:47:49;;;;;;;;;3.67;3.33;;;;;26.49;40.18;102165.91;5068759;27;45603;-74
2022/09/21 10:50:28;;;;;;;;;2.00;2.00;;;;;26.48;39.97;102156.03;5070399;27;45740;-72
2022/09/21 10:53:09;;;;;;;;;7.33;4.33;;;;;26.46;39.69;102160.78;5062640;27;46525;-74
2022/09/21 10:55:51;;;;;;;;;4.00;4.00;;;;;26.41;40.07;102151.19;5064582;27;46625;-74
2022/09/21 10:58:17;;;;;;;;;3.00;2.67;;;;;26.41;40.13;102153.09;5068447;27;45509;-74
2022/09/21 11:00:50;;;;;;;;;4.00;3.33;;;;;26.40;40.79;102148.66;5067117;27;45493;-74
2022/09/21 11:03:56;;;;;;;;;2.00;2.00;;;;;26.42;40.14;102152.06;5072819;27;45861;-74
2022/09/21 11:06:47;;;;;;;;;3.00;3.00;;;;;26.44;40.48;102150.03;5076032;27;47380;-74
2022/09/21 11:09:31;;;;;;;;;3.33;2.00;;;;;26.47;40.90;102157.03;5071605;27;45417;-71
2022/09/21 11:12:15;;;;;;;;;5.33;4.00;;;;;26.50;40.76;102152.16;5072886;27;45474;-70
2022/09/21 11:15:00;;;;;;;;;1.67;1.67;;;;;26.54;40.37;102144.53;5071295;27;45485;-71
2022/09/21 11:17:50;;;;;;;;;3.00;3.00;;;;;26.54;40.57;102144.53;5072985;27;47355;-72
2022/09/21 11:20:25;;;;;;;;;1.33;1.33;;;;;26.57;40.39;102141.50;5067779;27;45392;-74
2022/09/21 11:23:02;;;;;;;;;3.00;2.00;;;;;26.57;40.67;102141.50;5070180;27;45533;-73
2022/09/21 11:25:31;;;;;;;;;2.00;2.00;;;;;26.60;40.62;102143.06;5095036;27;45536;-71
2022/09/21 11:28:12;;;;;;;;;1.00;1.00;;;;;26.59;40.65;102139.47;5071174;28;46185;-71
2022/09/21 11:31:19;;;;;;;;;2.67;2.33;;;;;26.62;40.53;102133.72;5075650;27;45423;-71
2022/09/21 11:33:54;;;;;;;;;8.00;3.00;;;;;26.64;40.44;102134.41;5069092;28;46175;-71
2022/09/21 11:36:31;;;;;;;;;3.67;3.00;;;;;26.66;40.69;102123.38;5069223;27;45592;-74
2022/09/21 11:39:29;;;;;;;;;2.00;2.00;;;;;26.69;40.54;102126.63;5073656;27;45555;-73
2022/09/21 11:42:19;;;;;;;;;2.00;2.00;;;;;26.73;40.94;102118.16;5073414;27;46180;-72
2022/09/21 11:44:57;;;;;;;;;2.33;2.33;;;;;26.75;39.86;102119.69;5070508;27;45483;-73
2022/09/21 11:47:47;;;;;;;;;4.00;2.33;;;;;26.79;39.43;102114.78;5072299;27;45369;-71
2022/09/21 11:50:40;;;;;;;;;4.00;2.00;;;;;26.82;39.84;102106.31;5066360;27;46631;-69
2022/09/21 11:53:42;;;;;;;;;4.00;3.00;;;;;26.84;39.34;102115.16;5077723;27;46571;-70
2022/09/21 11:56:30;;;;;;;;;4.00;2.33;;;;;26.86;38.91;102110.44;5069461;27;45758;-70
2022/09/21 11:59:05;;;;;;;;;4.00;3.00;;;;;26.86;39.31;102105.00;5073003;27;46470;-70
2022/09/21 12:01:53;;;;;;;;;2.67;2.67;;;;;26.87;39.18;102111.28;5066662;27;46231;-69
2022/09/21 12:04:27;;;;;;;;;4.67;2.67;;;;;26.86;39.20;102104.13;5072239;27;45816;-68
2022/09/21 12:07:30;;;;;;;;;3.33;3.33;;;;;26.87;38.87;102111.28;5067940;27;45590;-72
2022/09/21 12:10:14;;;;;;;;;5.00;3.00;;;;;26.89;39.35;102101.94;5069839;27;45918;-71
2022/09/21 12:13:07;;;;;;;;;2.00;2.00;;;;;26.91;39.60;102099.91;5062820;27;47260;-71
2022/09/21 12:15:38;;;;;;;;;2.67;2.67;;;;;26.93;39.36;102097.03;5071526;27;45621;-72
2022/09/21 12:18:06;;;;;;;;;3.00;2.00;;;;;26.97;39.77;102101.16;5068465;27;45706;-71
2022/09/21 12:20:57;;;;;;;;;2.00;2.00;;;;;27.02;40.04;102096.09;5067909;27;45577;-72
2022/09/21 12:23:27;;;;;;;;;2.33;2.00;;;;;27.07;39.90;102103.78;5069830;27;46484;-73
2022/09/21 12:25:57;;;;;;;;;3.33;2.00;;;;;27.12;40.34;102106.03;5088117;27;45354;-73
2022/09/21 12:28:43;;;;;;;;;3.67;1.33;;;;;27.20;40.38;102103.38;5069781;27;45569;-72
2022/09/21 12:31:36;;;;;;;;;4.33;4.33;;;;;27.25;40.00;102105.63;5070704;27;45461;-72
2022/09/21 12:34:24;;;;;;;;;3.00;3.00;;;;;27.31;40.38;102103.09;5067622;27;46298;-70
2022/09/21 12:36:58;;;;;;;;;3.00;3.00;;;;;27.39;39.96;102099.56;5070016;27;45524;-71
2022/09/21 12:39:35;;;;;;;;;4.33;3.00;;;;;27.45;40.47;102100.78;5072560;27;45452;-72
2022/09/21 12:42:24;;;;;;;;;3.33;3.33;;;;;27.49;40.05;102102.16;5073494;27;47014;-73
2022/09/21 12:44:55;;;;;;;;;2.00;2.00;;;;;27.53;40.46;102098.09;5069620;28;46258;-68
2022/09/21 12:47:45;;;;;;;;;5.00;3.00;;;;;27.61;40.75;102100.91;5071004;27;45465;-68
2022/09/21 12:50:20;;;;;;;;;2.00;2.00;;;;;27.71;40.79;102098.03;5068810;27;45497;-69
2022/09/21 12:52:46;;;;;;;;;4.00;4.00;;;;;27.79;40.83;102090.91;5067515;27;45624;-68
2022/09/21 12:55:27;;;;;;;;;2.67;2.67;;;;;27.90;40.16;102093.31;5069934;28;47006;-68
2022/09/21 12:58:16;;;;;;;;;1.67;1.67;;;;;27.96;40.23;102094.53;5069860;27;45527;-69
2022/09/21 13:01:19;;;;;;;;;3.00;3.00;;;;;28.03;40.82;102090.13;5065703;27;45401;-70
2022/09/21 13:04:00;;;;;;;;;5.00;3.00;;;;;28.10;40.57;102082.13;5069569;27;45402;-68
2022/09/21 13:07:09;;;;;;;;;1.67;1.67;;;;;28.17;40.61;102088.63;5071169;27;46439;-68
2022/09/21 13:09:41;;;;;;;;;2.00;2.00;;;;;28.22;40.11;102077.19;5066551;27;45944;-68
2022/09/21 13:12:16;;;;;;;;;2.00;1.00;;;;;28.26;38.50;102075.88;5070613;27;45460;-68
2022/09/21 13:14:47;;;;;;;;;2.00;2.00;;;;;28.27;37.88;102063.91;5067743;27;45457;-68
2022/09/21 13:17:27;;;;;;;;;3.33;3.00;;;;;28.26;38.30;102067.69;5070551;27;46552;-69
2022/09/21 13:20:14;;;;;;;;;2.67;2.67;;;;;28.24;37.47;102072.44;5071040;27;45501;-70
2022/09/21 13:22:40;;;;;;;;;3.33;2.00;;;;;28.20;37.78;102068.31;5068882;27;45501;-71
2022/09/21 13:25:05;;;;;;;;;4.00;2.00;;;;;28.18;37.10;102062.16;5070998;27;45440;-70
2022/09/21 13:28:02;;;;;;;;;2.00;2.00;;;;;28.14;37.68;102075.31;5070050;27;46361;-71
2022/09/21 13:30:48;;;;;;;;;3.00;1.67;;;;;28.09;36.95;102059.44;5073450;27;45561;-70
2022/09/21 13:33:16;;;;;;;;;1.00;1.00;;;;;28.07;36.82;102063.38;5070292;27;45571;-70
2022/09/21 13:36:03;;;;;;;;;2.33;2.33;;;;;28.04;37.40;102064.56;5068652;27;46561;-70
2022/09/21 13:38:36;;;;;;;;;3.00;3.00;;;;;28.04;36.88;102061.81;5068281;27;47319;-68
2022/09/21 13:41:16;;;;;;;;;2.00;2.00;;;;;28.01;37.21;102057.56;5069090;27;45654;-70
2022/09/21 13:44:19;;;;;;;;;2.00;2.00;;;;;27.96;37.35;102039.97;5070614;27;45500;-70
2022/09/21 13:46:49;;;;;;;;;3.33;3.33;;;;;28.00;37.14;102047.63;5071033;27;45668;-69
2022/09/21 13:49:17;;;;;;;;;2.67;2.67;;;;;28.00;36.66;102039.44;5071597;27;45393;-71
2022/09/21 13:51:55;;;;;;;;;3.33;2.00;;;;;27.99;37.06;102037.75;5069872;27;45558;-70
2022/09/21 13:54:24;;;;;;;;;2.33;2.33;;;;;27.99;37.61;102035.03;5071073;27;45621;-71
2022/09/21 13:57:15;;;;;;;;;3.00;1.67;;;;;27.99;37.33;102031.44;5070721;27;45479;-71
2022/09/21 13:59:44;;;;;;;;;3.00;3.00;;;;;27.98;37.82;102030.59;5072161;27;45423;-71
2022/09/21 14:02:30;;;;;;;;;1.00;1.00;;;;;28.00;37.40;102030.44;5070448;27;45551;-70
2022/09/21 14:05:00;;;;;;;;;2.33;2.00;;;;;28.00;37.25;102028.53;5069292;27;45820;-69
2022/09/21 14:07:31;;;;;;;;;3.00;3.00;;;;;28.02;37.32;102028.38;5069292;27;45501;-67
2022/09/21 14:09:59;;;;;;;;;3.00;2.00;;;;;28.00;36.50;102014.91;5067382;27;45674;-68
2022/09/21 14:12:31;;;;;;;;;3.67;2.00;;;;;28.01;36.95;102015.75;5067117;27;45943;-67
2022/09/21 14:15:14;;;;;;;;;3.00;3.00;;;;;27.98;36.80;102014.22;5067147;27;45537;-68
2022/09/21 14:17:40;;;;;;;;;3.00;2.00;;;;;27.96;36.65;102018.16;5065790;28;45441;-67
2022/09/21 14:20:31;;;;;;;;;6.00;3.00;;;;;27.95;37.34;102014.56;5072651;28;45412;-69
2022/09/21 14:23:18;;;;;;;;;3.00;3.00;;;;;27.94;36.89;102011.97;5068354;27;45897;-68
2022/09/21 14:25:52;;;;;;;;;4.33;2.67;;;;;27.92;37.14;102019.50;5076881;27;45383;-68
2022/09/21 14:28:26;;;;;;;;;3.33;3.33;;;;;27.89;36.99;102017.97;5069204;27;45489;-69
2022/09/21 14:31:00;;;;;;;;;6.00;3.00;;;;;27.88;37.53;102011.63;5066649;27;45707;-70
2022/09/21 14:33:32;;;;;;;;;2.00;2.00;;;;;27.87;37.74;102004.47;5075554;27;45485;-70
2022/09/21 14:36:04;;;;;;;;;2.00;2.00;;;;;27.88;38.00;102011.63;5078901;27;45405;-70
2022/09/21 14:38:44;;;;;;;;;2.67;2.67;;;;;27.90;38.25;102002.47;5076763;28;45439;-70
2022/09/21 14:41:19;;;;;;;;;1.67;1.67;;;;;27.91;37.91;101995.97;5078008;27;47079;-71
2022/09/21 14:43:51;;;;;;;;;1.67;1.67;;;;;27.95;37.94;102000.06;5071740;27;45809;-69
2022/09/21 14:46:39;;;;;;;;;1.00;1.00;;;;;27.96;38.56;101999.88;5069360;28;45553;-68
2022/09/21 14:49:31;;;;;;;;;1.33;1.33;;;;;27.99;37.96;101998.69;5069829;28;45425;-68
2022/09/21 14:52:18;;;;;;;;;4.33;2.00;;;;;28.00;38.40;101994.97;5070705;27;45473;-68
2022/09/21 14:54:49;;;;;;;;;2.00;2.00;;;;;28.01;38.13;101992.06;5070539;27;46122;-69
2022/09/21 14:57:34;;;;;;;;;1.33;1.33;;;;;28.01;38.09;101996.66;5074112;27;45767;-69
2022/09/21 15:00:13;;;;;;;;;2.00;2.00;;;;;28.01;38.80;101991.19;5068286;27;45681;-70
2022/09/21 15:02:42;;;;;;;;;2.00;2.00;;;;;28.01;38.87;101992.06;5069546;27;45471;-71
2022/09/21 15:05:07;;;;;;;;;1.00;1.00;;;;;28.00;38.82;101982.16;5068627;27;45375;-71
2022/09/21 15:13:21;;;;;;;;;1.00;1.00;;;;;27.95;38.62;101970.06;5075060;27;45720;-71
2022/09/21 15:15:50;;;;;;;;;1.00;1.00;;;;;27.95;38.76;101979.09;5070912;27;45462;-72
2022/09/21 15:18:20;;;;;;;;;2.00;2.00;;;;;27.93;38.95;101963.91;5065935;27;45471;-72
2022/09/21 15:21:03;;;;;;;;;2.00;2.00;;;;;27.91;39.43;101968.69;5061180;27;45268;-68
2022/09/21 15:23:38;;;;;;;;;2.67;2.00;;;;;27.90;37.91;101969.72;5063501;27;47155;-70
2022/09/21 15:26:09;;;;;;;;;6.00;3.67;;;;;27.85;37.26;101962.03;5062430;27;45746;-68
2022/09/21 15:28:41;;;;;;;;;3.00;3.00;;;;;27.80;37.64;101961.69;5072359;27;45683;-68
2022/09/21 15:31:07;;;;;;;;;4.00;3.33;;;;;27.72;37.20;101957.06;5072417;27;45398;-68
2022/09/21 15:33:38;;;;;;;;;3.00;2.00;;;;;27.66;36.75;101960.47;5077137;27;46620;-69
2022/09/21 15:36:04;;;;;;;;;4.00;2.00;;;;;27.60;36.89;101961.97;5056751;27;45380;-68
2022/09/21 15:38:31;;;;;;;;;3.00;1.67;;;;;27.58;36.92;101961.25;5060984;27;45337;-68
2022/09/21 15:40:57;;;;;;;;;2.00;2.00;;;;;27.53;35.96;101956.31;5069514;27;45496;-69
2022/09/21 15:43:22;;;;;;;;;4.00;3.00;;;;;27.52;36.22;101964.66;5071293;27;45361;-68
2022/09/21 15:45:58;;;;;;;;;3.33;1.67;;;;;27.47;36.32;101957.81;5069497;28;45861;-69
2022/09/21 15:48:43;;;;;;;;;2.67;2.33;;;;;27.44;36.17;101958.16;5078193;27;45555;-69
2022/09/21 15:51:21;;;;;;;;;2.33;2.33;;;;;27.38;36.06;101956.09;5077792;27;45584;-69
2022/09/21 15:53:51;;;;;;;;;2.00;2.00;;;;;27.33;36.92;101950.28;5075274;27;46099;-68
2022/09/21 15:56:27;;;;;;;;;3.00;2.00;;;;;27.29;36.14;101940.72;5076086;27;45392;-69
2022/09/21 15:59:07;;;;;;;;;2.00;2.00;;;;;27.25;36.51;101947.53;5076419;28;45398;-69
2022/09/21 16:01:41;;;;;;;;;5.00;2.00;;;;;27.21;35.76;101947.88;5070518;27;46774;-70
2022/09/21 16:04:10;;;;;;;;;1.33;1.33;;;;;27.16;36.47;101942.06;5067339;28;45672;-70
2022/09/21 16:06:40;;;;;;;;;2.00;2.00;;;;;27.12;36.72;101946.13;5076069;28;45468;-71
2022/09/21 16:09:28;;;;;;;;;1.67;1.67;;;;;27.07;37.02;101948.50;5075752;27;45663;-70
2022/09/21 16:11:54;;;;;;;;;1.00;1.00;;;;;27.01;37.61;101957.31;5065240;28;45433;-71
2022/09/21 16:17:08;;;;;;;;;2.00;2.00;;;;;26.90;35.25;101951.13;5068683;27;45389;-70
2022/09/21 16:19:41;;;;;;;;;1.00;1.00;;;;;26.88;34.37;101944.97;5061040;28;45436;-70
2022/09/21 16:22:12;;;;;;;;;1.00;1.00;;;;;26.86;33.43;101951.59;5076249;27;46345;-70
2022/09/21 16:24:44;;;;;;;;;1.67;1.33;;;;;26.84;33.06;101952.59;5075997;27;45729;-69
2022/09/21 16:27:16;;;;;;;;;1.00;1.00;;;;;26.82;34.30;101954.63;5083630;27;45825;-70
2022/09/21 16:29:44;;;;;;;;;1.00;1.00;;;;;26.79;34.99;101951.38;5067311;27;45341;-70
2022/09/21 16:32:18;;;;;;;;;2.67;1.00;;;;;26.74;36.00;101956.47;5069676;27;45673;-69
2022/09/21 16:34:45;;;;;;;;;1.00;1.00;;;;;26.68;35.95;101953.38;5071493;28;45534;-70
2022/09/21 16:37:17;;;;;;;;;1.00;1.00;;;;;26.65;36.40;101958.28;5075989;28;45405;-70
2022/09/21 16:39:42;;;;;;;;;1.33;1.33;;;;;26.61;37.14;101954.16;5074265;27;45530;-70
2022/09/21 16:42:09;;;;;;;;;1.00;1.00;;;;;26.57;37.40;101951.75;5073226;28;46557;-70
2022/09/21 16:44:38;;;;;;;;;1.00;1.00;;;;;26.54;38.20;101946.66;5071602;28;46447;-70
2022/09/21 16:47:09;;;;;;;;;0.00;0.00;;;;;26.51;38.10;101955.13;5075241;28;45351;-70
2022/09/21 16:49:35;;;;;;;;;1.00;1.00;;;;;26.48;38.10;101951.88;5070510;27;45393;-70
2022/09/21 16:52:01;;;;;;;;;2.00;0.00;;;;;26.45;38.29;101944.88;5072044;27;45417;-70
2022/09/21 16:54:27;;;;;;;;;1.67;1.00;;;;;26.41;38.50;101952.50;5080538;27;45500;-70
2022/09/21 16:56:56;;;;;;;;;1.67;1.67;;;;;26.41;38.64;101951.66;5053835;27;45619;-70
2022/09/21 16:59:22;;;;;;;;;0.33;0.33;;;;;26.36;38.72;101948.56;5073504;27;45505;-70
2022/09/21 17:01:52;;;;;;;;;2.33;2.33;;;;;26.36;38.05;101962.16;5078865;27;45526;-69
2022/09/21 17:04:22;;;;;;;;;2.00;2.00;;;;;26.34;37.31;101956.88;5073981;27;46220;-69
2022/09/21 17:06:49;;;;;;;;;2.00;2.00;;;;;26.34;37.23;101956.88;5062110;27;45324;-69
2022/09/21 17:09:24;;;;;;;;;3.00;3.00;;;;;26.32;37.19;101958.88;5060963;28;45516;-69
2022/09/21 17:11:50;;;;;;;;;1.33;1.33;;;;;26.36;36.74;101967.63;5065073;27;45565;-70
2022/09/21 17:14:18;;;;;;;;;2.00;2.00;;;;;26.35;34.94;101968.63;5071891;27;47136;-69
2022/09/21 17:16:56;;;;;;;;;3.00;3.00;;;;;26.36;34.83;101956.72;5059698;27;45340;-69
2022/09/21 17:19:21;;;;;;;;;1.33;1.33;;;;;26.35;34.48;101957.75;5065431;27;45548;-69
2022/09/21 17:21:47;;;;;;;;;2.00;2.00;;;;;26.29;34.99;101951.91;5073775;27;45476;-69
2022/09/21 17:24:15;;;;;;;;;2.00;2.00;;;;;26.28;35.25;101958.34;5079328;27;46484;-69
2022/09/21 17:26:40;;;;;;;;;2.00;2.00;;;;;26.28;34.92;101957.53;5075588;27;45545;-69
2022/09/21 17:29:22;;;;;;;;;2.00;2.00;;;;;26.25;35.07;101953.25;5071451;27;45841;-68
2022/09/21 17:31:50;;;;;;;;;3.33;2.00;;;;;26.23;35.43;101952.50;5073358;28;45521;-69
2022/09/21 17:34:15;;;;;;;;;3.33;2.00;;;;;26.25;36.35;101958.69;5073647;27;46196;-69
2022/09/21 17:36:41;;;;;;;;;4.33;4.00;;;;;26.24;36.61;101950.66;5064148;28;45643;-69
2022/09/21 17:39:06;;;;;;;;;2.00;2.00;;;;;26.26;36.58;101960.38;5072381;27;45656;-70
2022/09/21 17:41:44;;;;;;;;;2.33;2.33;;;;;26.29;36.02;101959.22;5070310;27;45413;-69
2022/09/21 17:44:16;;;;;;;;;2.67;2.00;;;;;26.29;36.09;101962.78;5057440;28;45719;-69
2022/09/21 17:46:41;;;;;;;;;4.00;3.00;;;;;26.29;36.27;101967.38;5066902;27;45541;-70
2022/09/21 17:49:09;;;;;;;;;2.33;1.00;;;;;26.28;36.42;101966.53;5075618;27;45536;-70
2022/09/21 17:54:19;;;;;;;;;2.33;2.33;;;;;26.27;36.45;101964.81;5074324;28;45846;-70
2022/09/21 17:56:56;;;;;;;;;1.67;1.67;;;;;26.28;36.55;101969.25;5072549;27;45421;-70
2022/09/21 17:59:28;;;;;;;;;2.67;2.67;;;;;26.28;36.57;101968.41;5061920;28;45469;-70
2022/09/21 18:01:58;;;;;;;;;1.33;1.33;;;;;26.27;36.74;101970.25;5064072;27;45413;-70
2022/09/21 18:04:25;;;;;;;;;1.67;1.67;;;;;26.26;36.71;101973.13;5067736;27;45437;-70
2022/09/21 18:06:51;;;;;;;;;3.00;3.00;;;;;26.24;36.99;101980.59;5067547;27;45498;-69
2022/09/21 18:09:17;;;;;;;;;1.00;1.00;;;;;26.22;36.50;101977.13;5064266;27;45623;-68
2022/09/21 18:11:49;;;;;;;;;1.67;1.33;;;;;26.21;37.16;101975.44;5062492;27;45573;-68
2022/09/21 18:14:33;;;;;;;;;2.00;2.00;;;;;26.20;36.78;101987.34;5066845;27;45586;-69
2022/09/21 18:17:36;;;;;;;;;5.67;4.00;;;;;26.16;37.14;101989.53;5063437;28;47249;-69
2022/09/21 18:20:20;;;;;;;;;4.00;4.00;;;;;26.15;37.12;101990.50;5062706;27;45498;-69
2022/09/21 18:23:05;;;;;;;;;3.67;3.67;;;;;26.14;37.20;101983.38;5056100;27;46135;-71